YYZ weather

Lester B. Pearson International Airport
Toronto, Ontario, Canada

Public forecast

Using degrees Celsius for public forecast. Weather courtesy of forecast.io.

METAR (pilot weather report)

Retrieved 2018/04/22 09:00 UTC (56 minutes ago):

CYYZ 220900Z 32005KT 15SM SKC 02/M05 A3040 RMK SLP301

TAF (pilot weather forecast)

Retrieved 2018/04/22 09:44 UTC (12 minutes ago):

TAF CYYZ 220838Z 2209/2312 33005KT P6SM SKC BECMG 2216/2218 16008KT BECMG 2301/2303 02003KT RMK NXT FCST BY 221200Z